createdAt,value
2019-01-21T00:02:08.461Z,80.89
2019-01-21T00:06:13.437Z,80.91
2019-01-21T00:10:18.342Z,80.96
2019-01-21T00:14:23.264Z,81.12
2019-01-21T00:18:28.189Z,81.70
2019-01-21T00:22:33.176Z,82.07
2019-01-21T00:26:38.086Z,82.36
2019-01-21T00:30:43.007Z,82.11
2019-01-21T00:34:48.043Z,81.61
2019-01-21T00:38:52.940Z,82.27
2019-01-21T00:42:57.849Z,81.92
2019-01-21T00:47:02.738Z,81.76
2019-01-21T00:51:07.654Z,82.34
2019-01-21T00:55:12.642Z,81.68
2019-01-21T00:59:17.663Z,81.59
2019-01-21T01:03:22.580Z,82.13
2019-01-21T01:07:27.502Z,82.96
2019-01-21T01:11:32.519Z,82.51
2019-01-21T01:15:37.456Z,82.80
2019-01-21T01:19:42.351Z,82.45
2019-01-21T01:23:47.239Z,82.50
2019-01-21T01:27:52.588Z,81.87
2019-01-21T01:31:57.496Z,82.43
2019-01-21T01:36:02.471Z,82.72
2019-01-21T01:40:11.353Z,82.11
2019-01-21T01:44:16.274Z,82.51
2019-01-21T01:48:21.450Z,83.34
2019-01-21T01:52:26.367Z,82.43
2019-01-21T01:56:31.340Z,83.34
2019-01-21T02:00:36.795Z,82.75
2019-01-21T02:04:41.690Z,83.04
2019-01-21T02:08:46.999Z,82.89
2019-01-21T02:12:51.892Z,83.52
2019-01-21T02:16:56.813Z,83.71
2019-01-21T02:21:02.823Z,82.70
2019-01-21T02:25:08.428Z,82.88
2019-01-21T02:29:54.167Z,83.18
2019-01-21T02:35:08.761Z,83.81
2019-01-21T02:39:33.141Z,83.48
2019-01-21T02:44:44.475Z,83.13
2019-01-21T02:49:06.720Z,83.46
2019-01-21T02:54:14.445Z,83.18
2019-01-21T02:58:46.694Z,82.65
2019-01-21T03:03:37.424Z,82.85
2019-01-21T03:08:30.914Z,83.54
2019-01-21T03:13:19.455Z,83.20
2019-01-21T03:18:07.999Z,83.79
2019-01-21T03:22:50.133Z,83.22
2019-01-21T03:27:58.376Z,83.31
2019-01-21T03:32:51.738Z,83.13
2019-01-21T03:38:03.644Z,83.21
2019-01-21T03:42:41.830Z,83.17
2019-01-21T03:47:29.684Z,83.53
2019-01-21T03:52:17.264Z,83.97
2019-01-21T03:57:03.951Z,83.55
2019-01-21T04:02:36.579Z,84.12
2019-01-21T04:07:24.817Z,83.60
2019-01-21T04:12:30.636Z,84.04
2019-01-21T04:17:17.580Z,83.56
2019-01-21T04:22:01.150Z,84.31
2019-01-21T04:26:42.879Z,84.22
2019-01-21T04:31:44.925Z,84.35
2019-01-21T04:36:32.599Z,84.18
2019-01-21T04:40:57.427Z,84.37
2019-01-21T04:45:56.708Z,84.15
2019-01-21T04:50:56.775Z,84.51
2019-01-21T04:56:00.304Z,84.13
2019-01-21T05:00:42.194Z,84.31
2019-01-21T05:05:26.154Z,84.46
2019-01-21T05:10:34.696Z,84.67
2019-01-21T05:15:41.549Z,84.83
2019-01-21T05:21:04.900Z,84.56
2019-01-21T05:26:12.993Z,84.71
2019-01-21T05:30:59.591Z,84.57
2019-01-21T05:36:04.886Z,84.45
2019-01-21T05:40:57.871Z,84.93
2019-01-21T05:45:44.007Z,84.84
2019-01-21T05:50:18.141Z,84.24
2019-01-21T05:55:07.503Z,84.37
2019-01-21T05:59:48.795Z,84.49
2019-01-21T06:04:41.285Z,84.77
2019-01-21T06:09:32.138Z,84.84
2019-01-21T06:14:21.366Z,84.76
2019-01-21T06:19:29.455Z,85.12
2019-01-21T06:24:00.008Z,85.36
2019-01-21T06:29:11.855Z,85.24
2019-01-21T06:33:56.413Z,85.09
2019-01-21T06:39:10.413Z,85.18
2019-01-21T06:44:10.314Z,85.33
2019-01-21T06:48:54.584Z,85.24
2019-01-21T06:53:34.494Z,85.34
2019-01-21T06:58:13.051Z,85.51
2019-01-21T07:03:25.061Z,85.53
2019-01-21T07:08:17.949Z,85.42
2019-01-21T07:13:15.263Z,85.47
2019-01-21T07:18:12.421Z,85.42
2019-01-21T07:23:09.145Z,85.63
2019-01-21T07:27:57.635Z,85.67
2019-01-21T07:32:22.633Z,85.85
2019-01-21T07:37:31.302Z,85.45
2019-01-21T07:42:26.257Z,85.48
2019-01-21T07:47:26.488Z,85.51
2019-01-21T07:52:27.672Z,85.46
2019-01-21T07:57:23.184Z,85.38
2019-01-21T08:02:06.041Z,85.48
2019-01-21T08:06:48.960Z,85.50
2019-01-21T08:11:44.482Z,85.35
2019-01-21T08:16:38.954Z,85.28
2019-01-21T08:21:34.272Z,85.28
2019-01-21T08:26:16.023Z,85.32
2019-01-21T08:31:29.472Z,85.21
2019-01-21T08:36:39.341Z,84.91
2019-01-21T08:41:45.542Z,84.05
2019-01-21T08:46:27.112Z,83.44
2019-01-21T08:51:13.200Z,83.27
2019-01-21T08:56:02.625Z,83.73
2019-01-21T09:00:19.880Z,83.51
2019-01-21T09:05:29.395Z,83.68
2019-01-21T09:10:06.049Z,83.02
2019-01-21T09:14:40.993Z,82.39
2019-01-21T09:19:21.752Z,82.03
2019-01-21T09:24:08.083Z,82.78
2019-01-21T09:29:07.322Z,82.75
2019-01-21T09:34:11.637Z,81.89
2019-01-21T09:39:14.948Z,81.61
2019-01-21T09:43:59.014Z,81.55
2019-01-21T09:48:02.070Z,79.95
2019-01-21T09:52:19.201Z,80.63
2019-01-21T09:56:24.955Z,79.93
2019-01-21T10:00:29.860Z,78.50
2019-01-21T10:05:07.272Z,79.60
2019-01-21T10:09:48.419Z,78.82
2019-01-21T10:14:59.125Z,79.42
2019-01-21T10:20:19.629Z,78.91
2019-01-21T10:24:53.724Z,77.69
2019-01-21T10:30:06.224Z,77.49
2019-01-21T10:35:10.555Z,76.52
2019-01-21T10:40:07.922Z,77.55
2019-01-21T10:44:59.008Z,76.72
2019-01-21T10:49:43.693Z,75.63
2019-01-21T10:54:36.787Z,74.83
2019-01-21T10:59:32.807Z,74.72
2019-01-21T11:04:26.466Z,73.73
2019-01-21T11:09:35.847Z,72.77
2019-01-21T11:14:47.651Z,71.45
2019-01-21T11:19:54.072Z,72.87
2019-01-21T11:25:42.129Z,72.31
2019-01-21T11:30:21.510Z,72.51
2019-01-21T11:35:19.630Z,70.94
2019-01-21T11:40:32.365Z,70.59
2019-01-21T11:45:41.451Z,69.86
2019-01-21T11:50:43.788Z,68.65
2019-01-21T11:55:40.019Z,68.05
2019-01-21T12:00:42.658Z,67.87
2019-01-21T12:05:30.758Z,68.36
2019-01-21T12:10:40.571Z,67.57
2019-01-21T12:15:26.032Z,67.63
2019-01-21T12:20:03.145Z,65.55
2019-01-21T12:24:45.871Z,66.27
2019-01-21T12:29:45.932Z,66.55
2019-01-21T12:34:46.544Z,64.92
2019-01-21T12:39:09.694Z,64.35
2019-01-21T12:43:42.301Z,65.06
2019-01-21T12:48:29.438Z,62.72
2019-01-21T12:52:53.198Z,62.99
2019-01-21T12:58:19.675Z,62.99
2019-01-21T13:03:34.609Z,59.57
2019-01-21T13:08:58.314Z,56.76
2019-01-21T13:13:58.556Z,51.09
2019-01-21T13:18:54.741Z,55.91
2019-01-21T13:23:51.338Z,53.06
2019-01-21T13:28:45.780Z,53.38
2019-01-21T13:33:34.428Z,54.36
2019-01-21T13:38:29.650Z,55.19
2019-01-21T13:43:17.997Z,55.02
2019-01-21T13:48:19.054Z,54.68
2019-01-21T13:52:59.862Z,55.94
2019-01-21T13:58:14.531Z,58.86
2019-01-21T14:02:43.413Z,58.11
2019-01-21T14:07:36.823Z,58.82
2019-01-21T14:12:31.916Z,58.73
2019-01-21T14:17:40.908Z,59.37
2019-01-21T14:22:44.950Z,60.29
2019-01-21T14:28:01.535Z,59.97
2019-01-21T14:32:36.276Z,60.55
2019-01-21T14:37:47.299Z,60.05
2019-01-21T14:42:48.493Z,60.33
2019-01-21T14:47:51.103Z,60.64
2019-01-21T14:53:08.848Z,61.56
2019-01-21T14:58:05.098Z,60.54
2019-01-21T15:03:00.668Z,59.79
2019-01-21T15:07:32.612Z,59.84
2019-01-21T15:12:46.254Z,61.87
2019-01-21T15:17:49.552Z,61.79
2019-01-21T15:22:38.426Z,61.54
2019-01-21T15:27:22.263Z,63.16
2019-01-21T15:32:12.655Z,61.97
2019-01-21T15:37:08.951Z,63.41
2019-01-21T15:41:59.379Z,64.89
2019-01-21T15:47:05.615Z,65.11
2019-01-21T15:51:57.591Z,64.77
2019-01-21T15:56:51.238Z,66.17
2019-01-21T16:02:01.452Z,66.46
2019-01-21T16:07:06.187Z,66.57
2019-01-21T16:11:48.562Z,69.04
2019-01-21T16:17:08.257Z,69.48
2019-01-21T16:22:05.516Z,70.32
2019-01-21T16:26:27.569Z,70.03
2019-01-21T16:30:57.315Z,71.63
2019-01-21T16:35:31.528Z,71.98
2019-01-21T16:40:26.627Z,73.33
2019-01-21T16:44:31.628Z,73.26
2019-01-21T16:48:36.934Z,72.30
2019-01-21T16:52:41.956Z,73.91
2019-01-21T16:56:46.959Z,73.07
2019-01-21T17:00:51.947Z,73.12
2019-01-21T17:04:56.824Z,73.04
2019-01-21T17:09:01.745Z,74.38
2019-01-21T17:13:06.731Z,73.38
2019-01-21T17:21:16.892Z,74.00
2019-01-21T17:25:21.844Z,75.03
2019-01-21T17:29:26.752Z,75.06
2019-01-21T17:33:32.312Z,74.45
2019-01-21T17:37:37.498Z,74.14
2019-01-21T17:41:42.478Z,74.81
2019-01-21T17:45:47.390Z,75.12
2019-01-21T17:49:52.335Z,76.29
2019-01-21T17:53:57.241Z,75.05
2019-01-21T17:58:02.221Z,76.05
2019-01-21T18:02:07.535Z,76.25
2019-01-21T18:06:12.448Z,75.31
2019-01-21T18:10:20.447Z,75.99
2019-01-21T18:14:25.455Z,76.14
2019-01-21T18:18:30.373Z,76.44
2019-01-21T18:22:35.401Z,76.95
2019-01-21T18:26:40.426Z,76.89
2019-01-21T18:30:45.316Z,76.57
2019-01-21T18:34:50.684Z,76.65
2019-01-21T18:38:55.594Z,77.78
2019-01-21T18:43:00.628Z,77.79
2019-01-21T18:47:05.890Z,77.43
2019-01-21T18:51:10.892Z,77.64
2019-01-21T18:55:15.777Z,77.42
2019-01-21T18:59:20.793Z,77.55
2019-01-21T19:03:26.169Z,77.19
2019-01-21T19:07:31.218Z,77.05
2019-01-21T19:11:36.549Z,77.12
2019-01-21T19:15:41.429Z,77.61
2019-01-21T19:19:46.342Z,77.82
2019-01-21T19:23:51.681Z,78.13
2019-01-21T19:27:56.732Z,77.93
2019-01-21T19:32:01.723Z,78.31
2019-01-21T19:36:06.735Z,78.12
2019-01-21T19:40:16.332Z,77.42
2019-01-21T19:44:21.635Z,78.22
2019-01-21T19:48:26.531Z,77.74
2019-01-21T19:52:31.462Z,78.27
2019-01-21T19:56:36.449Z,78.81
2019-01-21T20:00:41.460Z,79.03
2019-01-21T20:04:46.374Z,78.31
2019-01-21T20:08:51.281Z,78.58
2019-01-21T20:12:56.239Z,79.13
2019-01-21T20:17:01.392Z,78.62
2019-01-21T20:21:06.436Z,79.22
2019-01-21T20:25:11.673Z,79.29
2019-01-21T20:29:16.667Z,79.01
2019-01-21T20:33:21.620Z,79.83
2019-01-21T20:37:31.144Z,79.22
2019-01-21T20:41:36.082Z,79.89
2019-01-21T20:45:41.685Z,78.90
2019-01-21T20:49:46.567Z,79.59
2019-01-21T20:53:52.173Z,78.79
2019-01-21T20:57:57.543Z,79.19
2019-01-21T21:02:02.702Z,79.49
2019-01-21T21:06:07.946Z,79.18
2019-01-21T21:10:13.259Z,79.37
2019-01-21T21:14:18.599Z,80.01
2019-01-21T21:18:23.554Z,80.16
2019-01-21T21:22:28.601Z,80.57
2019-01-21T21:26:33.539Z,80.75
2019-01-21T21:30:38.547Z,81.16
2019-01-21T21:34:43.936Z,80.71
2019-01-21T21:38:48.865Z,81.04
2019-01-21T21:42:53.820Z,81.30
2019-01-21T21:46:58.783Z,81.55
2019-01-21T21:51:03.730Z,81.15
2019-01-21T21:55:10.249Z,80.67
2019-01-21T21:59:15.455Z,80.79
2019-01-21T22:03:20.409Z,81.09
2019-01-21T22:07:25.432Z,81.11
2019-01-21T22:11:30.365Z,80.96
2019-01-21T22:15:35.681Z,81.11
2019-01-21T22:19:40.708Z,80.89
2019-01-21T22:23:45.630Z,81.29
2019-01-21T22:27:50.571Z,80.80
2019-01-21T22:31:55.515Z,80.98
2019-01-21T22:36:00.846Z,81.03
2019-01-21T22:40:08.723Z,81.50
2019-01-21T22:44:14.207Z,81.08
2019-01-21T22:48:19.124Z,81.66
2019-01-21T22:52:24.332Z,81.47
2019-01-21T22:56:29.284Z,81.97
2019-01-21T23:01:11.807Z,81.62
2019-01-21T23:05:16.856Z,81.49
2019-01-21T23:09:22.071Z,81.23
2019-01-21T23:13:26.964Z,81.46
2019-01-21T23:17:31.895Z,82.22
2019-01-21T23:21:36.854Z,82.16
2019-01-21T23:25:41.779Z,82.40
2019-01-21T23:29:46.684Z,82.05
2019-01-21T23:33:51.924Z,82.27
2019-01-21T23:37:56.855Z,81.72
2019-01-21T23:42:01.858Z,81.75
2019-01-21T23:46:06.770Z,81.94
2019-01-21T23:50:11.689Z,82.24
2019-01-21T23:54:17.051Z,81.74
2019-01-21T23:58:21.961Z,81.92
